sensor_id;sensor_type;location;lat;lon;timestamp;P1;durP1;ratioP1;P2;durP2;ratioP2
69835;SDS011;57132;51.972;4.450;2023-03-01T00:01:35;33.67;;;17.65;;
69835;SDS011;57132;51.972;4.450;2023-03-01T00:04:02;31.45;;;18.10;;
69835;SDS011;57132;51.972;4.450;2023-03-01T00:06:27;32.13;;;17.27;;
69835;SDS011;57132;51.972;4.450;2023-03-01T00:08:53;27.75;;;17.38;;
69835;SDS011;57132;51.972;4.450;2023-03-01T00:11:20;38.70;;;18.98;;
69835;SDS011;57132;51.972;4.450;2023-03-01T00:13:48;33.65;;;18.77;;
69835;SDS011;57132;51.972;4.450;2023-03-01T00:16:16;33.03;;;18.13;;
69835;SDS011;57132;51.972;4.450;2023-03-01T00:18:47;37.92;;;18.70;;
69835;SDS011;57132;51.972;4.450;2023-03-01T00:21:12;34.88;;;19.73;;
69835;SDS011;57132;51.972;4.450;2023-03-01T00:23:39;37.35;;;18.85;;
69835;SDS011;57132;51.972;4.450;2023-03-01T00:26:06;39.58;;;19.52;;
69835;SDS011;57132;51.972;4.450;2023-03-01T00:28:35;33.95;;;18.30;;
69835;SDS011;57132;51.972;4.450;2023-03-01T00:31:08;38.10;;;18.83;;
69835;SDS011;57132;51.972;4.450;2023-03-01T00:33:35;36.05;;;19.08;;
69835;SDS011;57132;51.972;4.450;2023-03-01T00:36:00;40.05;;;19.50;;
69835;SDS011;57132;51.972;4.450;2023-03-01T00:38:26;35.10;;;18.83;;
69835;SDS011;57132;51.972;4.450;2023-03-01T00:40:52;35.20;;;19.77;;
69835;SDS011;57132;51.972;4.450;2023-03-01T00:43:17;36.13;;;20.80;;
69835;SDS011;57132;51.972;4.450;2023-03-01T00:45:43;41.05;;;19.45;;
69835;SDS011;57132;51.972;4.450;2023-03-01T00:48:08;34.78;;;18.83;;
69835;SDS011;57132;51.972;4.450;2023-03-01T00:50:34;36.67;;;19.55;;
69835;SDS011;57132;51.972;4.450;2023-03-01T00:52:59;38.33;;;19.17;;
69835;SDS011;57132;51.972;4.450;2023-03-01T00:55:25;41.15;;;21.23;;
69835;SDS011;57132;51.972;4.450;2023-03-01T00:57:50;33.83;;;19.88;;
69835;SDS011;57132;51.972;4.450;2023-03-01T01:00:16;38.38;;;19.85;;
69835;SDS011;57132;51.972;4.450;2023-03-01T01:02:43;36.40;;;18.98;;
69835;SDS011;57132;51.972;4.450;2023-03-01T01:05:09;41.30;;;21.23;;
69835;SDS011;57132;51.972;4.450;2023-03-01T01:07:34;37.38;;;20.48;;
69835;SDS011;57132;51.972;4.450;2023-03-01T01:10:00;38.42;;;20.42;;
69835;SDS011;57132;51.972;4.450;2023-03-01T01:12:26;35.92;;;19.65;;
69835;SDS011;57132;51.972;4.450;2023-03-01T01:14:51;35.80;;;19.08;;
69835;SDS011;57132;51.972;4.450;2023-03-01T01:17:16;38.20;;;20.25;;
69835;SDS011;57132;51.972;4.450;2023-03-01T01:19:44;37.08;;;19.67;;
69835;SDS011;57132;51.972;4.450;2023-03-01T01:22:09;37.20;;;20.83;;
69835;SDS011;57132;51.972;4.450;2023-03-01T01:24:34;39.80;;;20.05;;
69835;SDS011;57132;51.972;4.450;2023-03-01T01:27:00;40.80;;;21.33;;
69835;SDS011;57132;51.972;4.450;2023-03-01T01:29:25;38.47;;;20.33;;
69835;SDS011;57132;51.972;4.450;2023-03-01T01:31:51;46.75;;;23.48;;
69835;SDS011;57132;51.972;4.450;2023-03-01T01:34:17;41.30;;;20.70;;
69835;SDS011;57132;51.972;4.450;2023-03-01T01:36:49;43.72;;;22.33;;
69835;SDS011;57132;51.972;4.450;2023-03-01T01:39:15;49.90;;;22.00;;
69835;SDS011;57132;51.972;4.450;2023-03-01T01:41:42;43.90;;;22.85;;
69835;SDS011;57132;51.972;4.450;2023-03-01T01:44:12;47.88;;;23.15;;
69835;SDS011;57132;51.972;4.450;2023-03-01T01:46:42;46.08;;;21.15;;
69835;SDS011;57132;51.972;4.450;2023-03-01T01:51:58;51.33;;;23.70;;
69835;SDS011;57132;51.972;4.450;2023-03-01T01:54:34;45.28;;;21.30;;
69835;SDS011;57132;51.972;4.450;2023-03-01T01:57:20;47.00;;;21.45;;
69835;SDS011;57132;51.972;4.450;2023-03-01T01:59:50;48.20;;;21.13;;
69835;SDS011;57132;51.972;4.450;2023-03-01T02:02:20;49.03;;;23.55;;
69835;SDS011;57132;51.972;4.450;2023-03-01T02:04:46;49.90;;;22.85;;
69835;SDS011;57132;51.972;4.450;2023-03-01T02:07:17;54.42;;;22.10;;
69835;SDS011;57132;51.972;4.450;2023-03-01T02:09:46;44.42;;;21.50;;
69835;SDS011;57132;51.972;4.450;2023-03-01T02:12:17;51.40;;;25.20;;
69835;SDS011;57132;51.972;4.450;2023-03-01T02:14:43;47.67;;;22.75;;
69835;SDS011;57132;51.972;4.450;2023-03-01T02:17:09;54.45;;;24.17;;
69835;SDS011;57132;51.972;4.450;2023-03-01T02:27:19;48.08;;;20.90;;
69835;SDS011;57132;51.972;4.450;2023-03-01T02:29:50;50.78;;;22.55;;
69835;SDS011;57132;51.972;4.450;2023-03-01T02:32:15;40.83;;;20.02;;
69835;SDS011;57132;51.972;4.450;2023-03-01T02:34:51;45.53;;;21.02;;
69835;SDS011;57132;51.972;4.450;2023-03-01T02:37:20;45.53;;;22.20;;
69835;SDS011;57132;51.972;4.450;2023-03-01T02:39:50;46.33;;;22.13;;
69835;SDS011;57132;51.972;4.450;2023-03-01T02:42:23;47.88;;;20.83;;
69835;SDS011;57132;51.972;4.450;2023-03-01T02:44:51;45.28;;;21.45;;
69835;SDS011;57132;51.972;4.450;2023-03-01T02:47:16;50.80;;;22.40;;
69835;SDS011;57132;51.972;4.450;2023-03-01T02:49:42;50.65;;;23.33;;
69835;SDS011;57132;51.972;4.450;2023-03-01T02:52:20;50.78;;;23.15;;
69835;SDS011;57132;51.972;4.450;2023-03-01T02:54:51;56.92;;;24.00;;
69835;SDS011;57132;51.972;4.450;2023-03-01T02:57:33;51.47;;;22.15;;
69835;SDS011;57132;51.972;4.450;2023-03-01T03:00:03;54.40;;;23.90;;
69835;SDS011;57132;51.972;4.450;2023-03-01T03:02:32;43.17;;;22.02;;
69835;SDS011;57132;51.972;4.450;2023-03-01T03:07:49;57.97;;;25.42;;
69835;SDS011;57132;51.972;4.450;2023-03-01T03:10:20;53.13;;;25.63;;
69835;SDS011;57132;51.972;4.450;2023-03-01T03:12:52;52.40;;;24.33;;
69835;SDS011;57132;51.972;4.450;2023-03-01T03:15:19;56.95;;;25.00;;
69835;SDS011;57132;51.972;4.450;2023-03-01T03:17:45;55.33;;;24.17;;
69835;SDS011;57132;51.972;4.450;2023-03-01T03:20:12;46.70;;;21.95;;
69835;SDS011;57132;51.972;4.450;2023-03-01T03:22:44;44.83;;;22.42;;
69835;SDS011;57132;51.972;4.450;2023-03-01T03:25:10;48.80;;;20.48;;
69835;SDS011;57132;51.972;4.450;2023-03-01T03:27:39;53.40;;;22.17;;
69835;SDS011;57132;51.972;4.450;2023-03-01T03:30:06;54.35;;;23.92;;
69835;SDS011;57132;51.972;4.450;2023-03-01T03:32:34;54.58;;;22.17;;
69835;SDS011;57132;51.972;4.450;2023-03-01T03:35:00;47.63;;;22.25;;
69835;SDS011;57132;51.972;4.450;2023-03-01T03:37:26;44.28;;;20.75;;
69835;SDS011;57132;51.972;4.450;2023-03-01T03:40:11;59.22;;;23.70;;
69835;SDS011;57132;51.972;4.450;2023-03-01T03:42:40;53.20;;;21.80;;
69835;SDS011;57132;51.972;4.450;2023-03-01T03:45:06;56.38;;;23.52;;
69835;SDS011;57132;51.972;4.450;2023-03-01T03:47:32;56.22;;;25.45;;
69835;SDS011;57132;51.972;4.450;2023-03-01T03:49:57;51.88;;;23.42;;
69835;SDS011;57132;51.972;4.450;2023-03-01T03:52:23;46.17;;;22.23;;
69835;SDS011;57132;51.972;4.450;2023-03-01T03:54:48;50.55;;;22.30;;
69835;SDS011;57132;51.972;4.450;2023-03-01T03:57:13;53.55;;;24.80;;
69835;SDS011;57132;51.972;4.450;2023-03-01T03:59:39;46.03;;;23.38;;
69835;SDS011;57132;51.972;4.450;2023-03-01T04:02:04;59.30;;;24.90;;
69835;SDS011;57132;51.972;4.450;2023-03-01T04:04:30;58.38;;;22.65;;
69835;SDS011;57132;51.972;4.450;2023-03-01T04:06:56;56.85;;;24.38;;
69835;SDS011;57132;51.972;4.450;2023-03-01T04:09:21;52.28;;;24.75;;
69835;SDS011;57132;51.972;4.450;2023-03-01T04:11:46;48.00;;;23.77;;
69835;SDS011;57132;51.972;4.450;2023-03-01T04:14:11;55.60;;;22.85;;
69835;SDS011;57132;51.972;4.450;2023-03-01T04:16:37;47.30;;;21.20;;
69835;SDS011;57132;51.972;4.450;2023-03-01T04:19:02;36.10;;;17.48;;
69835;SDS011;57132;51.972;4.450;2023-03-01T04:21:28;41.00;;;18.60;;
69835;SDS011;57132;51.972;4.450;2023-03-01T04:23:53;50.25;;;20.75;;
69835;SDS011;57132;51.972;4.450;2023-03-01T04:26:19;34.60;;;18.42;;
69835;SDS011;57132;51.972;4.450;2023-03-01T04:28:45;36.03;;;16.67;;
69835;SDS011;57132;51.972;4.450;2023-03-01T04:31:12;38.97;;;17.95;;
69835;SDS011;57132;51.972;4.450;2023-03-01T04:34:01;38.72;;;20.02;;
69835;SDS011;57132;51.972;4.450;2023-03-01T04:36:26;43.97;;;20.23;;
69835;SDS011;57132;51.972;4.450;2023-03-01T04:38:53;42.33;;;20.60;;
69835;SDS011;57132;51.972;4.450;2023-03-01T04:41:20;42.53;;;17.77;;
69835;SDS011;57132;51.972;4.450;2023-03-01T04:43:48;47.03;;;20.92;;
69835;SDS011;57132;51.972;4.450;2023-03-01T04:46:16;54.08;;;22.98;;
69835;SDS011;57132;51.972;4.450;2023-03-01T04:48:44;54.17;;;23.27;;
69835;SDS011;57132;51.972;4.450;2023-03-01T04:51:10;56.65;;;24.55;;
69835;SDS011;57132;51.972;4.450;2023-03-01T04:53:38;61.83;;;27.20;;
69835;SDS011;57132;51.972;4.450;2023-03-01T04:56:04;92.15;;;31.27;;
69835;SDS011;57132;51.972;4.450;2023-03-01T04:58:30;91.97;;;33.60;;
69835;SDS011;57132;51.972;4.450;2023-03-01T05:00:56;195.63;;;43.90;;
69835;SDS011;57132;51.972;4.450;2023-03-01T05:03:21;97.65;;;34.45;;
69835;SDS011;57132;51.972;4.450;2023-03-01T05:05:48;103.97;;;33.97;;
69835;SDS011;57132;51.972;4.450;2023-03-01T05:08:15;82.50;;;33.58;;
69835;SDS011;57132;51.972;4.450;2023-03-01T05:10:50;77.88;;;33.25;;
69835;SDS011;57132;51.972;4.450;2023-03-01T05:13:17;178.23;;;39.45;;
69835;SDS011;57132;51.972;4.450;2023-03-01T05:15:59;85.40;;;33.83;;
69835;SDS011;57132;51.972;4.450;2023-03-01T05:18:26;85.18;;;32.70;;
69835;SDS011;57132;51.972;4.450;2023-03-01T05:20:54;123.30;;;36.20;;
69835;SDS011;57132;51.972;4.450;2023-03-01T05:23:23;167.70;;;41.25;;
69835;SDS011;57132;51.972;4.450;2023-03-01T05:25:49;89.80;;;34.90;;
69835;SDS011;57132;51.972;4.450;2023-03-01T05:28:17;79.35;;;32.95;;
69835;SDS011;57132;51.972;4.450;2023-03-01T05:30:44;102.65;;;34.08;;
69835;SDS011;57132;51.972;4.450;2023-03-01T05:33:10;74.68;;;32.13;;
69835;SDS011;57132;51.972;4.450;2023-03-01T05:35:38;94.00;;;34.95;;
69835;SDS011;57132;51.972;4.450;2023-03-01T05:38:06;70.55;;;29.73;;
69835;SDS011;57132;51.972;4.450;2023-03-01T05:40:32;98.90;;;33.03;;
69835;SDS011;57132;51.972;4.450;2023-03-01T05:42:58;81.47;;;32.78;;
69835;SDS011;57132;51.972;4.450;2023-03-01T05:45:24;75.68;;;30.90;;
69835;SDS011;57132;51.972;4.450;2023-03-01T05:47:51;80.05;;;33.65;;
69835;SDS011;57132;51.972;4.450;2023-03-01T05:50:18;79.55;;;32.72;;
69835;SDS011;57132;51.972;4.450;2023-03-01T05:52:46;82.03;;;32.75;;
69835;SDS011;57132;51.972;4.450;2023-03-01T05:55:15;69.60;;;31.63;;
69835;SDS011;57132;51.972;4.450;2023-03-01T05:57:41;92.72;;;34.42;;
69835;SDS011;57132;51.972;4.450;2023-03-01T06:00:07;87.22;;;34.25;;
69835;SDS011;57132;51.972;4.450;2023-03-01T06:02:34;99.78;;;35.80;;
69835;SDS011;57132;51.972;4.450;2023-03-01T06:04:59;96.13;;;37.28;;
69835;SDS011;57132;51.972;4.450;2023-03-01T06:07:24;98.03;;;38.45;;
69835;SDS011;57132;51.972;4.450;2023-03-01T06:09:50;86.07;;;34.05;;
69835;SDS011;57132;51.972;4.450;2023-03-01T06:12:15;88.05;;;34.88;;
69835;SDS011;57132;51.972;4.450;2023-03-01T06:14:40;112.50;;;34.35;;
69835;SDS011;57132;51.972;4.450;2023-03-01T06:17:06;76.38;;;29.10;;
69835;SDS011;57132;51.972;4.450;2023-03-01T06:19:31;75.57;;;30.48;;
69835;SDS011;57132;51.972;4.450;2023-03-01T06:21:56;79.18;;;31.38;;
69835;SDS011;57132;51.972;4.450;2023-03-01T06:24:22;71.63;;;30.15;;
69835;SDS011;57132;51.972;4.450;2023-03-01T06:26:48;81.63;;;33.30;;
69835;SDS011;57132;51.972;4.450;2023-03-01T06:29:13;82.72;;;30.92;;
69835;SDS011;57132;51.972;4.450;2023-03-01T06:31:39;80.80;;;31.70;;
69835;SDS011;57132;51.972;4.450;2023-03-01T06:34:04;80.10;;;32.30;;
69835;SDS011;57132;51.972;4.450;2023-03-01T06:36:30;78.68;;;33.45;;
69835;SDS011;57132;51.972;4.450;2023-03-01T06:38:55;89.30;;;35.95;;
69835;SDS011;57132;51.972;4.450;2023-03-01T06:41:21;86.75;;;30.88;;
69835;SDS011;57132;51.972;4.450;2023-03-01T06:43:46;88.03;;;33.05;;
69835;SDS011;57132;51.972;4.450;2023-03-01T06:46:11;78.57;;;32.42;;
69835;SDS011;57132;51.972;4.450;2023-03-01T06:48:37;80.13;;;26.55;;
69835;SDS011;57132;51.972;4.450;2023-03-01T06:51:02;70.45;;;29.33;;
69835;SDS011;57132;51.972;4.450;2023-03-01T06:53:28;68.00;;;27.02;;
69835;SDS011;57132;51.972;4.450;2023-03-01T06:55:55;71.15;;;28.90;;
69835;SDS011;57132;51.972;4.450;2023-03-01T06:58:21;67.38;;;29.02;;
69835;SDS011;57132;51.972;4.450;2023-03-01T07:00:46;68.50;;;28.17;;
69835;SDS011;57132;51.972;4.450;2023-03-01T07:03:12;61.67;;;27.80;;
69835;SDS011;57132;51.972;4.450;2023-03-01T07:05:37;58.92;;;26.27;;
69835;SDS011;57132;51.972;4.450;2023-03-01T07:08:02;76.05;;;30.48;;
69835;SDS011;57132;51.972;4.450;2023-03-01T07:10:28;60.65;;;25.95;;
69835;SDS011;57132;51.972;4.450;2023-03-01T07:12:54;69.97;;;28.40;;
69835;SDS011;57132;51.972;4.450;2023-03-01T07:15:20;66.43;;;28.45;;
69835;SDS011;57132;51.972;4.450;2023-03-01T07:17:45;66.32;;;29.20;;
69835;SDS011;57132;51.972;4.450;2023-03-01T07:20:12;84.05;;;30.17;;
69835;SDS011;57132;51.972;4.450;2023-03-01T07:22:41;72.07;;;30.23;;
69835;SDS011;57132;51.972;4.450;2023-03-01T07:25:10;64.30;;;31.02;;
69835;SDS011;57132;51.972;4.450;2023-03-01T07:27:36;68.03;;;30.83;;
69835;SDS011;57132;51.972;4.450;2023-03-01T07:30:02;69.47;;;28.67;;
69835;SDS011;57132;51.972;4.450;2023-03-01T07:32:28;67.47;;;30.50;;
69835;SDS011;57132;51.972;4.450;2023-03-01T07:34:54;68.22;;;31.00;;
69835;SDS011;57132;51.972;4.450;2023-03-01T07:37:19;72.75;;;30.13;;
69835;SDS011;57132;51.972;4.450;2023-03-01T07:39:44;67.80;;;30.08;;
69835;SDS011;57132;51.972;4.450;2023-03-01T07:42:10;77.10;;;31.15;;
69835;SDS011;57132;51.972;4.450;2023-03-01T07:44:35;78.13;;;33.72;;
69835;SDS011;57132;51.972;4.450;2023-03-01T07:47:01;72.78;;;32.30;;
69835;SDS011;57132;51.972;4.450;2023-03-01T07:49:26;82.18;;;34.90;;
69835;SDS011;57132;51.972;4.450;2023-03-01T07:51:52;76.40;;;36.10;;
69835;SDS011;57132;51.972;4.450;2023-03-01T07:54:18;86.43;;;34.30;;
69835;SDS011;57132;51.972;4.450;2023-03-01T07:56:43;88.97;;;35.20;;
69835;SDS011;57132;51.972;4.450;2023-03-01T07:59:09;85.93;;;34.90;;
69835;SDS011;57132;51.972;4.450;2023-03-01T08:01:34;96.50;;;38.10;;
69835;SDS011;57132;51.972;4.450;2023-03-01T08:03:59;94.68;;;36.42;;
69835;SDS011;57132;51.972;4.450;2023-03-01T08:06:25;95.00;;;38.85;;
69835;SDS011;57132;51.972;4.450;2023-03-01T08:08:50;97.07;;;37.80;;
69835;SDS011;57132;51.972;4.450;2023-03-01T08:11:15;90.75;;;39.08;;
69835;SDS011;57132;51.972;4.450;2023-03-01T08:13:41;94.88;;;39.53;;
69835;SDS011;57132;51.972;4.450;2023-03-01T08:16:09;92.15;;;37.90;;
69835;SDS011;57132;51.972;4.450;2023-03-01T08:18:37;98.80;;;38.35;;
69835;SDS011;57132;51.972;4.450;2023-03-01T08:21:03;86.63;;;35.13;;
69835;SDS011;57132;51.972;4.450;2023-03-01T08:23:29;95.13;;;38.15;;
69835;SDS011;57132;51.972;4.450;2023-03-01T08:25:55;87.55;;;37.47;;
69835;SDS011;57132;51.972;4.450;2023-03-01T08:28:28;93.30;;;37.13;;
69835;SDS011;57132;51.972;4.450;2023-03-01T08:30:55;86.03;;;36.10;;
69835;SDS011;57132;51.972;4.450;2023-03-01T08:33:20;77.85;;;34.03;;
69835;SDS011;57132;51.972;4.450;2023-03-01T08:35:46;77.85;;;33.30;;
69835;SDS011;57132;51.972;4.450;2023-03-01T08:38:11;78.95;;;33.90;;
69835;SDS011;57132;51.972;4.450;2023-03-01T08:40:36;69.57;;;32.58;;
69835;SDS011;57132;51.972;4.450;2023-03-01T08:43:02;70.90;;;32.17;;
69835;SDS011;57132;51.972;4.450;2023-03-01T08:45:27;63.95;;;31.10;;
69835;SDS011;57132;51.972;4.450;2023-03-01T08:47:52;56.08;;;28.90;;
69835;SDS011;57132;51.972;4.450;2023-03-01T08:50:18;54.20;;;28.75;;
69835;SDS011;57132;51.972;4.450;2023-03-01T08:52:43;44.83;;;25.92;;
69835;SDS011;57132;51.972;4.450;2023-03-01T08:55:09;47.10;;;24.67;;
69835;SDS011;57132;51.972;4.450;2023-03-01T08:57:34;44.38;;;22.52;;
69835;SDS011;57132;51.972;4.450;2023-03-01T09:00:00;33.80;;;19.13;;
69835;SDS011;57132;51.972;4.450;2023-03-01T09:02:25;38.35;;;19.35;;
69835;SDS011;57132;51.972;4.450;2023-03-01T09:04:51;35.65;;;17.50;;
69835;SDS011;57132;51.972;4.450;2023-03-01T09:07:16;31.90;;;18.38;;
69835;SDS011;57132;51.972;4.450;2023-03-01T09:09:41;25.83;;;15.00;;
69835;SDS011;57132;51.972;4.450;2023-03-01T09:12:07;21.63;;;12.95;;
69835;SDS011;57132;51.972;4.450;2023-03-01T09:14:32;22.80;;;12.20;;
69835;SDS011;57132;51.972;4.450;2023-03-01T09:16:57;27.27;;;22.40;;
69835;SDS011;57132;51.972;4.450;2023-03-01T09:19:23;16.58;;;10.25;;
69835;SDS011;57132;51.972;4.450;2023-03-01T09:21:48;17.40;;;10.50;;
69835;SDS011;57132;51.972;4.450;2023-03-01T09:24:21;15.48;;;9.55;;
69835;SDS011;57132;51.972;4.450;2023-03-01T09:26:48;17.08;;;9.20;;
69835;SDS011;57132;51.972;4.450;2023-03-01T09:29:14;14.70;;;8.55;;
69835;SDS011;57132;51.972;4.450;2023-03-01T09:31:40;17.15;;;10.00;;
69835;SDS011;57132;51.972;4.450;2023-03-01T09:34:06;15.25;;;9.38;;
69835;SDS011;57132;51.972;4.450;2023-03-01T09:36:33;13.93;;;9.43;;
69835;SDS011;57132;51.972;4.450;2023-03-01T09:38:59;11.32;;;8.38;;
69835;SDS011;57132;51.972;4.450;2023-03-01T09:47:12;11.57;;;8.48;;
69835;SDS011;57132;51.972;4.450;2023-03-01T09:49:45;15.35;;;8.27;;
69835;SDS011;57132;51.972;4.450;2023-03-01T09:52:42;10.27;;;8.30;;
69835;SDS011;57132;51.972;4.450;2023-03-01T09:55:12;13.25;;;8.23;;
69835;SDS011;57132;51.972;4.450;2023-03-01T09:57:47;10.18;;;8.02;;
69835;SDS011;57132;51.972;4.450;2023-03-01T10:02:57;12.07;;;8.18;;
69835;SDS011;57132;51.972;4.450;2023-03-01T10:05:34;9.55;;;8.00;;
69835;SDS011;57132;51.972;4.450;2023-03-01T10:10:50;9.95;;;7.68;;
69835;SDS011;57132;51.972;4.450;2023-03-01T10:15:55;10.02;;;7.30;;
69835;SDS011;57132;51.972;4.450;2023-03-01T10:18:25;9.73;;;6.22;;
69835;SDS011;57132;51.972;4.450;2023-03-01T10:23:22;9.02;;;7.25;;
69835;SDS011;57132;51.972;4.450;2023-03-01T10:28:46;7.05;;;5.40;;
69835;SDS011;57132;51.972;4.450;2023-03-01T10:31:31;7.70;;;6.27;;
69835;SDS011;57132;51.972;4.450;2023-03-01T10:34:02;7.28;;;5.75;;
69835;SDS011;57132;51.972;4.450;2023-03-01T10:36:33;7.55;;;5.75;;
69835;SDS011;57132;51.972;4.450;2023-03-01T10:38:59;9.10;;;5.57;;
69835;SDS011;57132;51.972;4.450;2023-03-01T10:41:35;7.05;;;5.70;;
69835;SDS011;57132;51.972;4.450;2023-03-01T10:44:34;10.90;;;5.00;;
69835;SDS011;57132;51.972;4.450;2023-03-01T10:47:24;7.57;;;5.82;;
69835;SDS011;57132;51.972;4.450;2023-03-01T10:50:02;6.60;;;5.00;;
69835;SDS011;57132;51.972;4.450;2023-03-01T10:55:04;8.85;;;5.68;;
69835;SDS011;57132;51.972;4.450;2023-03-01T10:57:50;7.85;;;5.57;;
69835;SDS011;57132;51.972;4.450;2023-03-01T11:00:47;10.55;;;6.05;;
69835;SDS011;57132;51.972;4.450;2023-03-01T11:03:20;9.00;;;6.75;;
69835;SDS011;57132;51.972;4.450;2023-03-01T11:08:25;8.57;;;6.47;;
69835;SDS011;57132;51.972;4.450;2023-03-01T11:11:21;8.55;;;6.68;;
69835;SDS011;57132;51.972;4.450;2023-03-01T11:13:58;9.10;;;6.85;;
69835;SDS011;57132;51.972;4.450;2023-03-01T11:16:25;9.55;;;7.30;;
69835;SDS011;57132;51.972;4.450;2023-03-01T11:19:03;10.13;;;7.43;;
69835;SDS011;57132;51.972;4.450;2023-03-01T11:32:35;9.57;;;7.63;;
69835;SDS011;57132;51.972;4.450;2023-03-01T11:35:24;12.55;;;8.25;;
69835;SDS011;57132;51.972;4.450;2023-03-01T11:40:28;11.73;;;8.57;;
69835;SDS011;57132;51.972;4.450;2023-03-01T11:51:09;11.80;;;9.17;;
69835;SDS011;57132;51.972;4.450;2023-03-01T11:53:50;13.02;;;8.98;;
69835;SDS011;57132;51.972;4.450;2023-03-01T11:56:40;16.85;;;10.38;;
69835;SDS011;57132;51.972;4.450;2023-03-01T12:04:49;14.10;;;9.35;;
69835;SDS011;57132;51.972;4.450;2023-03-01T12:07:24;12.60;;;8.73;;
69835;SDS011;57132;51.972;4.450;2023-03-01T12:12:46;13.18;;;8.13;;
69835;SDS011;57132;51.972;4.450;2023-03-01T12:15:34;11.98;;;8.27;;
69835;SDS011;57132;51.972;4.450;2023-03-01T12:18:19;15.30;;;9.50;;
69835;SDS011;57132;51.972;4.450;2023-03-01T12:20:56;17.08;;;9.48;;
69835;SDS011;57132;51.972;4.450;2023-03-01T12:26:51;15.65;;;10.30;;
69835;SDS011;57132;51.972;4.450;2023-03-01T12:30:25;15.70;;;9.18;;
69835;SDS011;57132;51.972;4.450;2023-03-01T12:32:49;15.10;;;11.52;;
69835;SDS011;57132;51.972;4.450;2023-03-01T12:51:26;14.95;;;9.13;;
69835;SDS011;57132;51.972;4.450;2023-03-01T12:53:55;13.35;;;8.60;;
69835;SDS011;57132;51.972;4.450;2023-03-01T12:56:25;13.68;;;8.05;;
69835;SDS011;57132;51.972;4.450;2023-03-01T13:02:20;12.82;;;8.30;;
69835;SDS011;57132;51.972;4.450;2023-03-01T13:05:01;15.00;;;8.70;;
69835;SDS011;57132;51.972;4.450;2023-03-01T13:07:41;12.63;;;8.38;;
69835;SDS011;57132;51.972;4.450;2023-03-01T13:13:10;17.85;;;8.63;;
69835;SDS011;57132;51.972;4.450;2023-03-01T13:15:39;12.80;;;8.00;;
69835;SDS011;57132;51.972;4.450;2023-03-01T13:30:56;18.17;;;6.72;;
69835;SDS011;57132;51.972;4.450;2023-03-01T13:41:09;10.50;;;5.75;;
69835;SDS011;57132;51.972;4.450;2023-03-01T13:43:35;9.23;;;6.03;;
69835;SDS011;57132;51.972;4.450;2023-03-01T13:46:07;7.93;;;5.40;;
69835;SDS011;57132;51.972;4.450;2023-03-01T13:48:36;7.10;;;5.40;;
69835;SDS011;57132;51.972;4.450;2023-03-01T13:51:04;9.38;;;5.65;;
69835;SDS011;57132;51.972;4.450;2023-03-01T13:53:37;9.95;;;5.78;;
69835;SDS011;57132;51.972;4.450;2023-03-01T13:56:20;7.82;;;5.45;;
69835;SDS011;57132;51.972;4.450;2023-03-01T14:01:28;10.05;;;5.72;;
69835;SDS011;57132;51.972;4.450;2023-03-01T14:03:56;8.60;;;5.72;;
69835;SDS011;57132;51.972;4.450;2023-03-01T14:06:23;8.55;;;5.93;;
69835;SDS011;57132;51.972;4.450;2023-03-01T14:08:52;9.82;;;6.40;;
69835;SDS011;57132;51.972;4.450;2023-03-01T14:19:43;10.00;;;5.72;;
69835;SDS011;57132;51.972;4.450;2023-03-01T14:24:49;10.02;;;5.53;;
69835;SDS011;57132;51.972;4.450;2023-03-01T14:27:16;8.05;;;5.85;;
69835;SDS011;57132;51.972;4.450;2023-03-01T14:29:43;10.60;;;5.72;;
69835;SDS011;57132;51.972;4.450;2023-03-01T14:32:19;10.73;;;5.97;;
69835;SDS011;57132;51.972;4.450;2023-03-01T14:34:48;7.20;;;5.60;;
69835;SDS011;57132;51.972;4.450;2023-03-01T14:39:45;8.70;;;5.57;;
69835;SDS011;57132;51.972;4.450;2023-03-01T14:42:11;9.10;;;5.80;;
69835;SDS011;57132;51.972;4.450;2023-03-01T14:44:37;9.77;;;6.18;;
69835;SDS011;57132;51.972;4.450;2023-03-01T14:47:03;9.90;;;6.38;;
69835;SDS011;57132;51.972;4.450;2023-03-01T14:49:30;8.77;;;5.50;;
69835;SDS011;57132;51.972;4.450;2023-03-01T14:51:59;6.93;;;5.85;;
69835;SDS011;57132;51.972;4.450;2023-03-01T14:54:43;9.30;;;6.18;;
69835;SDS011;57132;51.972;4.450;2023-03-01T14:57:15;10.23;;;6.10;;
69835;SDS011;57132;51.972;4.450;2023-03-01T14:59:49;8.70;;;5.45;;
69835;SDS011;57132;51.972;4.450;2023-03-01T15:02:18;8.60;;;6.45;;
69835;SDS011;57132;51.972;4.450;2023-03-01T15:04:47;10.23;;;5.65;;
69835;SDS011;57132;51.972;4.450;2023-03-01T15:07:16;8.30;;;5.30;;
69835;SDS011;57132;51.972;4.450;2023-03-01T15:09:42;9.13;;;5.80;;
69835;SDS011;57132;51.972;4.450;2023-03-01T15:14:52;8.32;;;5.18;;
69835;SDS011;57132;51.972;4.450;2023-03-01T15:17:34;5.90;;;4.90;;
69835;SDS011;57132;51.972;4.450;2023-03-01T15:20:04;7.30;;;5.32;;
69835;SDS011;57132;51.972;4.450;2023-03-01T15:22:42;9.20;;;5.22;;
69835;SDS011;57132;51.972;4.450;2023-03-01T15:25:20;10.55;;;5.50;;
69835;SDS011;57132;51.972;4.450;2023-03-01T15:27:48;11.23;;;5.22;;
69835;SDS011;57132;51.972;4.450;2023-03-01T15:35:54;9.73;;;5.68;;
69835;SDS011;57132;51.972;4.450;2023-03-01T15:41:01;8.18;;;4.88;;
69835;SDS011;57132;51.972;4.450;2023-03-01T15:43:39;9.23;;;4.70;;
69835;SDS011;57132;51.972;4.450;2023-03-01T15:48:58;10.70;;;5.60;;
69835;SDS011;57132;51.972;4.450;2023-03-01T15:51:29;9.75;;;5.38;;
69835;SDS011;57132;51.972;4.450;2023-03-01T15:54:02;7.93;;;5.50;;
69835;SDS011;57132;51.972;4.450;2023-03-01T15:56:31;8.23;;;4.90;;
69835;SDS011;57132;51.972;4.450;2023-03-01T15:58:57;8.48;;;5.78;;
69835;SDS011;57132;51.972;4.450;2023-03-01T16:01:24;10.10;;;7.03;;
69835;SDS011;57132;51.972;4.450;2023-03-01T16:03:50;9.57;;;6.47;;
69835;SDS011;57132;51.972;4.450;2023-03-01T16:06:15;9.52;;;6.15;;
69835;SDS011;57132;51.972;4.450;2023-03-01T16:08:40;9.93;;;6.13;;
69835;SDS011;57132;51.972;4.450;2023-03-01T16:11:13;9.68;;;6.05;;
69835;SDS011;57132;51.972;4.450;2023-03-01T16:13:42;9.65;;;6.13;;
69835;SDS011;57132;51.972;4.450;2023-03-01T16:16:09;12.27;;;7.20;;
69835;SDS011;57132;51.972;4.450;2023-03-01T16:18:37;9.02;;;5.88;;
69835;SDS011;57132;51.972;4.450;2023-03-01T16:21:03;13.93;;;6.70;;
69835;SDS011;57132;51.972;4.450;2023-03-01T16:23:29;10.98;;;6.45;;
69835;SDS011;57132;51.972;4.450;2023-03-01T16:25:58;11.98;;;7.10;;
69835;SDS011;57132;51.972;4.450;2023-03-01T16:28:24;11.00;;;6.18;;
69835;SDS011;57132;51.972;4.450;2023-03-01T16:30:49;11.68;;;6.78;;
69835;SDS011;57132;51.972;4.450;2023-03-01T16:33:15;14.35;;;7.00;;
69835;SDS011;57132;51.972;4.450;2023-03-01T16:35:41;10.90;;;6.25;;
69835;SDS011;57132;51.972;4.450;2023-03-01T16:38:08;8.77;;;5.75;;
69835;SDS011;57132;51.972;4.450;2023-03-01T16:40:33;12.80;;;6.55;;
69835;SDS011;57132;51.972;4.450;2023-03-01T16:42:58;11.07;;;6.35;;
69835;SDS011;57132;51.972;4.450;2023-03-01T16:45:26;11.32;;;6.47;;
69835;SDS011;57132;51.972;4.450;2023-03-01T16:47:53;10.60;;;6.15;;
69835;SDS011;57132;51.972;4.450;2023-03-01T16:50:19;8.90;;;6.25;;
69835;SDS011;57132;51.972;4.450;2023-03-01T16:52:44;11.43;;;6.32;;
69835;SDS011;57132;51.972;4.450;2023-03-01T16:55:10;9.80;;;6.05;;
69835;SDS011;57132;51.972;4.450;2023-03-01T16:57:37;11.88;;;7.47;;
69835;SDS011;57132;51.972;4.450;2023-03-01T17:00:04;10.07;;;6.15;;
69835;SDS011;57132;51.972;4.450;2023-03-01T17:02:32;14.68;;;8.02;;